createdAt,value
2018-09-20T00:00:30.957Z,6.80
2018-09-20T00:02:59.121Z,6.90
2018-09-20T00:05:27.365Z,6.77
2018-09-20T00:07:55.511Z,6.13
2018-09-20T00:10:23.772Z,6.20
2018-09-20T00:12:51.978Z,6.97
2018-09-20T00:15:20.215Z,7.67
2018-09-20T00:17:48.449Z,7.33
2018-09-20T00:20:16.609Z,8.47
2018-09-20T00:22:44.773Z,7.30
2018-09-20T00:25:12.933Z,7.43
2018-09-20T00:27:41.223Z,6.60
2018-09-20T00:30:09.421Z,7.73
2018-09-20T00:32:37.617Z,7.43
2018-09-20T00:35:05.781Z,7.27
2018-09-20T00:37:33.915Z,6.90
2018-09-20T00:40:02.198Z,7.10
2018-09-20T00:42:30.394Z,7.20
2018-09-20T00:44:58.544Z,7.53
2018-09-20T00:47:26.680Z,7.63
2018-09-20T00:49:54.790Z,7.87
2018-09-20T00:52:22.984Z,7.93
2018-09-20T00:54:51.148Z,8.30
2018-09-20T00:57:19.284Z,7.27
2018-09-20T00:59:47.375Z,7.27
2018-09-20T01:02:15.727Z,7.37
2018-09-20T01:04:44.060Z,7.53
2018-09-20T01:07:12.181Z,8.13
2018-09-20T01:09:40.290Z,7.70
2018-09-20T01:12:08.490Z,8.33
2018-09-20T01:14:36.725Z,8.90
2018-09-20T01:17:04.876Z,8.07
2018-09-20T01:19:33.038Z,8.37
2018-09-20T01:22:01.180Z,7.30
2018-09-20T01:24:29.375Z,8.43
2018-09-20T01:26:57.779Z,8.13
2018-09-20T01:29:25.890Z,7.30
2018-09-20T01:31:54.005Z,8.20
2018-09-20T01:34:22.310Z,7.87
2018-09-20T01:36:50.591Z,7.97
2018-09-20T01:39:18.761Z,8.03
2018-09-20T01:41:46.973Z,8.90
2018-09-20T01:44:15.283Z,8.17
2018-09-20T01:46:43.520Z,7.67
2018-09-20T01:49:11.752Z,7.03
2018-09-20T01:51:39.940Z,8.40
2018-09-20T01:54:08.118Z,7.57
2018-09-20T01:56:36.376Z,8.57
2018-09-20T01:59:04.786Z,7.87
2018-09-20T02:01:33.000Z,8.83
2018-09-20T02:04:01.140Z,8.77
2018-09-20T02:06:29.378Z,8.57
2018-09-20T02:08:57.599Z,10.33
2018-09-20T02:11:25.822Z,11.33
2018-09-20T02:13:54.558Z,9.93
2018-09-20T02:16:22.906Z,9.73
2018-09-20T02:18:51.200Z,9.73
2018-09-20T02:21:19.331Z,9.87
2018-09-20T02:23:47.614Z,10.13
2018-09-20T02:26:15.818Z,10.60
2018-09-20T02:28:44.091Z,11.03
2018-09-20T02:31:12.318Z,10.70
2018-09-20T02:33:40.443Z,9.43
2018-09-20T02:36:08.798Z,9.53
2018-09-20T02:38:37.171Z,10.73
2018-09-20T02:41:05.338Z,8.90
2018-09-20T02:43:33.556Z,8.10
2018-09-20T02:46:01.781Z,10.07
2018-09-20T02:48:30.132Z,9.17
2018-09-20T02:50:58.671Z,11.30
2018-09-20T02:53:26.869Z,10.60
2018-09-20T02:55:55.015Z,9.83
2018-09-20T02:58:23.135Z,8.97
2018-09-20T03:00:51.374Z,10.27
2018-09-20T03:03:19.799Z,11.43
2018-09-20T03:05:47.974Z,10.37
2018-09-20T03:08:16.119Z,10.43
2018-09-20T03:10:44.584Z,11.37
2018-09-20T03:13:12.958Z,11.60
2018-09-20T03:15:41.186Z,10.50
2018-09-20T03:18:09.410Z,11.57
2018-09-20T03:20:37.558Z,11.37
2018-09-20T03:23:05.926Z,10.33
2018-09-20T03:25:34.172Z,12.47
2018-09-20T03:28:02.412Z,11.23
2018-09-20T03:30:30.778Z,11.53
2018-09-20T03:32:58.950Z,10.87
2018-09-20T03:35:27.248Z,9.47
2018-09-20T03:37:55.484Z,9.70
2018-09-20T03:40:23.709Z,10.87
2018-09-20T03:42:51.950Z,9.03
2018-09-20T03:45:20.206Z,9.80
2018-09-20T03:47:48.466Z,9.70
2018-09-20T03:50:16.584Z,10.17
2018-09-20T03:52:44.746Z,9.90
2018-09-20T03:55:12.962Z,10.70
2018-09-20T03:57:41.309Z,11.03
2018-09-20T04:00:09.614Z,10.47
2018-09-20T04:02:37.781Z,10.13
2018-09-20T04:05:05.986Z,9.93
2018-09-20T04:07:34.933Z,10.43
2018-09-20T04:10:03.218Z,9.93
2018-09-20T04:12:31.538Z,9.47
2018-09-20T04:14:59.631Z,9.37
2018-09-20T04:17:27.793Z,8.80
2018-09-20T04:19:56.015Z,9.50
2018-09-20T04:22:24.302Z,9.50
2018-09-20T04:24:52.466Z,9.10
2018-09-20T04:27:20.660Z,9.70
2018-09-20T04:29:48.821Z,9.23
2018-09-20T04:32:17.055Z,10.77
2018-09-20T04:34:45.478Z,10.70
2018-09-20T04:37:13.618Z,11.50
2018-09-20T04:39:41.824Z,10.87
2018-09-20T04:42:10.513Z,11.77
2018-09-20T04:44:38.781Z,10.30
2018-09-20T04:47:07.003Z,11.97
2018-09-20T04:49:35.131Z,12.90
2018-09-20T04:52:03.327Z,12.27
2018-09-20T04:54:31.601Z,11.80
2018-09-20T04:56:59.784Z,12.53
2018-09-20T04:59:27.927Z,13.53
2018-09-20T05:01:56.510Z,13.93
2018-09-20T05:04:24.695Z,14.23
2018-09-20T05:06:52.980Z,13.13
2018-09-20T05:09:21.205Z,12.30
2018-09-20T05:11:49.333Z,12.70
2018-09-20T05:14:17.521Z,12.27
2018-09-20T05:16:45.784Z,12.20
2018-09-20T05:19:14.090Z,12.93
2018-09-20T05:21:42.342Z,13.27
2018-09-20T05:24:10.497Z,12.67
2018-09-20T05:26:38.629Z,12.97
2018-09-20T05:29:06.857Z,12.20
2018-09-20T05:31:35.170Z,11.40
2018-09-20T05:34:03.362Z,11.27
2018-09-20T05:36:31.573Z,11.63
2018-09-20T05:38:59.814Z,11.83
2018-09-20T05:41:28.093Z,10.90
2018-09-20T05:43:56.374Z,10.23
2018-09-20T05:46:24.566Z,9.23
2018-09-20T05:48:52.753Z,9.50
2018-09-20T05:51:20.872Z,9.67
2018-09-20T05:53:49.090Z,10.20
2018-09-20T05:56:17.373Z,12.37
2018-09-20T05:58:45.558Z,10.77
2018-09-20T06:01:13.769Z,11.60
2018-09-20T06:03:41.865Z,11.90
2018-09-20T06:06:10.113Z,10.33
2018-09-20T06:08:38.322Z,10.40
2018-09-20T06:11:06.440Z,10.93
2018-09-20T06:13:34.636Z,11.50
2018-09-20T06:16:02.796Z,11.23
2018-09-20T06:18:30.983Z,11.07
2018-09-20T06:20:59.252Z,11.00
2018-09-20T06:23:27.523Z,10.17
2018-09-20T06:25:55.685Z,10.13
2018-09-20T06:28:23.891Z,9.70
2018-09-20T06:30:52.177Z,8.77
2018-09-20T06:33:20.531Z,8.60
2018-09-20T06:35:48.708Z,8.73
2018-09-20T06:38:16.826Z,8.87
2018-09-20T06:40:44.974Z,9.00
2018-09-20T06:43:13.049Z,8.23
2018-09-20T06:45:41.357Z,7.20
2018-09-20T06:48:09.603Z,8.23
2018-09-20T06:50:37.812Z,8.23
2018-09-20T06:53:05.984Z,7.80
2018-09-20T06:55:34.361Z,7.83
2018-09-20T06:58:02.630Z,8.53
2018-09-20T07:00:30.893Z,8.03
2018-09-20T07:02:59.074Z,7.87
2018-09-20T07:05:27.149Z,8.27
2018-09-20T07:07:55.295Z,9.00
2018-09-20T07:10:23.591Z,9.50
2018-09-20T07:12:51.873Z,9.57
2018-09-20T07:15:20.017Z,9.10
2018-09-20T07:17:48.119Z,8.07
2018-09-20T07:20:16.274Z,8.87
2018-09-20T07:22:44.368Z,7.73
2018-09-20T07:25:12.745Z,7.37
2018-09-20T07:27:41.003Z,6.70
2018-09-20T07:30:09.115Z,7.07
2018-09-20T07:32:37.438Z,6.83
2018-09-20T07:35:05.823Z,7.83
2018-09-20T07:37:34.047Z,7.80
2018-09-20T07:40:02.318Z,6.53
2018-09-20T07:42:30.506Z,7.17
2018-09-20T07:44:58.652Z,6.60
2018-09-20T07:47:26.865Z,6.37
2018-09-20T07:49:54.974Z,6.70
2018-09-20T07:52:23.297Z,6.23
2018-09-20T07:54:51.513Z,5.83
2018-09-20T07:57:19.625Z,5.70
2018-09-20T07:59:47.862Z,5.97
2018-09-20T08:02:15.986Z,6.77
2018-09-20T08:04:44.321Z,7.37
2018-09-20T08:07:12.600Z,6.50
2018-09-20T08:09:40.702Z,6.80
2018-09-20T08:12:08.818Z,6.13
2018-09-20T08:14:36.986Z,6.70
2018-09-20T08:17:05.241Z,6.47
2018-09-20T08:19:33.577Z,6.17
2018-09-20T08:22:01.751Z,6.50
2018-09-20T08:24:29.894Z,6.57
2018-09-20T08:26:58.079Z,7.53
2018-09-20T08:29:26.226Z,6.83
2018-09-20T08:31:54.551Z,7.03
2018-09-20T08:34:22.796Z,7.17
2018-09-20T08:36:51.044Z,7.80
2018-09-20T08:39:21.034Z,7.30
2018-09-20T08:41:49.180Z,6.90
2018-09-20T08:44:17.406Z,7.40
2018-09-20T08:46:45.569Z,7.10
2018-09-20T08:49:13.854Z,6.60
2018-09-20T08:51:42.035Z,7.03
2018-09-20T08:54:10.296Z,7.23
2018-09-20T08:56:38.639Z,6.93
2018-09-20T08:59:06.796Z,6.67
2018-09-20T09:01:34.979Z,6.90
2018-09-20T09:04:03.197Z,7.10
2018-09-20T09:06:31.579Z,7.73
2018-09-20T09:08:59.889Z,7.93
2018-09-20T09:11:28.051Z,7.63
2018-09-20T09:13:56.236Z,8.27
2018-09-20T09:16:24.392Z,7.90
2018-09-20T09:18:52.628Z,8.07
2018-09-20T09:21:20.819Z,7.43
2018-09-20T09:23:49.150Z,7.77
2018-09-20T09:26:17.407Z,7.30
2018-09-20T09:28:45.865Z,7.67
2018-09-20T09:31:14.065Z,7.67
2018-09-20T09:33:42.339Z,7.27
2018-09-20T09:36:10.742Z,7.63
2018-09-20T09:38:38.891Z,7.10
2018-09-20T09:41:07.179Z,6.80
2018-09-20T09:43:35.272Z,7.07
2018-09-20T09:46:03.504Z,8.10
2018-09-20T09:48:31.749Z,7.47
2018-09-20T09:50:59.976Z,7.00
2018-09-20T09:53:28.168Z,6.97
2018-09-20T09:55:56.344Z,7.10
2018-09-20T09:58:24.476Z,6.53
2018-09-20T10:00:52.792Z,6.60
2018-09-20T10:03:21.064Z,6.10
2018-09-20T10:05:49.321Z,7.03
2018-09-20T10:08:17.442Z,6.70
2018-09-20T10:10:45.646Z,6.20
2018-09-20T10:13:13.790Z,6.27
2018-09-20T10:15:42.033Z,6.43
2018-09-20T10:18:10.431Z,6.20
2018-09-20T10:20:38.800Z,6.13
2018-09-20T10:23:06.929Z,5.93
2018-09-20T10:25:35.079Z,6.67
2018-09-20T10:28:03.418Z,6.13
2018-09-20T10:30:31.668Z,5.90
2018-09-20T10:32:59.856Z,6.53
2018-09-20T10:35:28.012Z,6.03
2018-09-20T10:37:56.163Z,6.00
2018-09-20T10:40:24.402Z,6.23
2018-09-20T10:42:52.560Z,6.43
2018-09-20T10:45:20.842Z,6.27
2018-09-20T10:47:49.219Z,6.00
2018-09-20T10:50:17.448Z,5.43
2018-09-20T10:52:45.599Z,6.07
2018-09-20T10:55:13.842Z,5.40
2018-09-20T10:57:43.029Z,5.80
2018-09-20T11:00:11.371Z,5.40
2018-09-20T11:02:39.711Z,5.50
2018-09-20T11:05:07.867Z,5.27
2018-09-20T11:07:36.053Z,5.87
2018-09-20T11:10:04.309Z,6.27
2018-09-20T11:12:34.817Z,6.10
2018-09-20T11:15:03.029Z,5.77
2018-09-20T11:17:31.182Z,5.43
2018-09-20T11:19:59.302Z,5.20
2018-09-20T11:22:27.591Z,5.90
2018-09-20T11:24:56.090Z,6.17
2018-09-20T11:27:24.296Z,5.93
2018-09-20T11:29:52.413Z,5.83
2018-09-20T11:32:20.567Z,5.53
2018-09-20T11:34:50.219Z,5.50
2018-09-20T11:37:19.037Z,5.00
2018-09-20T11:39:47.234Z,4.93
2018-09-20T11:42:15.386Z,5.60
2018-09-20T11:44:43.468Z,5.07
2018-09-20T11:47:11.737Z,5.50
2018-09-20T11:49:39.938Z,5.30
2018-09-20T11:52:08.093Z,5.37
2018-09-20T11:54:36.247Z,5.47
2018-09-20T11:57:04.425Z,5.60
2018-09-20T11:59:32.610Z,5.33
2018-09-20T12:02:00.816Z,5.30
2018-09-20T12:04:29.061Z,5.17
2018-09-20T12:06:57.293Z,5.50
2018-09-20T12:09:25.477Z,5.27
2018-09-20T12:11:53.592Z,5.33
2018-09-20T12:14:22.201Z,5.17
2018-09-20T12:16:50.531Z,4.80
2018-09-20T12:19:18.685Z,4.57
2018-09-20T12:21:47.021Z,5.00
2018-09-20T12:24:15.178Z,4.60
2018-09-20T12:26:54.616Z,5.20
2018-09-20T12:29:22.787Z,5.17
2018-09-20T12:31:51.016Z,4.63
2018-09-20T12:34:19.339Z,4.93
2018-09-20T12:42:17.415Z,4.20
2018-09-20T12:44:45.630Z,4.30
2018-09-20T12:47:13.774Z,4.80
2018-09-20T12:49:41.925Z,4.03
2018-09-20T12:52:10.246Z,4.60
2018-09-20T12:54:38.519Z,4.03
2018-09-20T12:57:06.784Z,3.97
2018-09-20T12:59:34.918Z,4.13
2018-09-20T13:02:03.095Z,4.60
2018-09-20T13:04:31.240Z,3.83
2018-09-20T13:06:59.414Z,4.50
2018-09-20T13:09:27.668Z,4.60
2018-09-20T13:11:55.850Z,4.37
2018-09-20T13:14:24.120Z,5.00
2018-09-20T13:16:52.348Z,4.50
2018-09-20T13:19:20.533Z,4.83
2018-09-20T13:21:48.762Z,5.00
2018-09-20T13:24:17.058Z,5.03
2018-09-20T13:26:46.534Z,4.90
2018-09-20T13:29:14.676Z,4.50
2018-09-20T13:31:42.962Z,4.53
2018-09-20T13:34:11.024Z,4.43
2018-09-20T13:36:39.449Z,4.00
2018-09-20T13:39:08.787Z,4.77
2018-09-20T13:41:37.027Z,4.23
2018-09-20T13:44:05.288Z,4.40
2018-09-20T13:46:33.711Z,4.00
2018-09-20T13:49:01.884Z,4.50
2018-09-20T13:51:30.104Z,4.40
2018-09-20T13:53:58.467Z,4.27
2018-09-20T13:56:26.846Z,4.20
2018-09-20T13:58:55.301Z,4.53
2018-09-20T14:01:23.833Z,4.30
2018-09-20T14:03:52.103Z,4.30
2018-09-20T14:06:20.445Z,4.57
2018-09-20T14:08:48.716Z,4.43
2018-09-20T14:11:16.895Z,4.20
2018-09-20T14:13:45.117Z,4.50
2018-09-20T14:16:13.377Z,4.20
2018-09-20T14:18:41.541Z,4.43
2018-09-20T14:21:09.948Z,4.30
2018-09-20T14:23:38.193Z,4.10
2018-09-20T14:26:06.628Z,4.53
2018-09-20T14:28:34.813Z,4.27
2018-09-20T14:31:03.033Z,3.93
2018-09-20T14:33:31.180Z,4.50
2018-09-20T14:35:59.448Z,4.30
2018-09-20T14:38:27.597Z,3.53
2018-09-20T14:40:55.759Z,3.60
2018-09-20T14:43:23.984Z,3.87
2018-09-20T14:45:52.159Z,3.80
2018-09-20T14:48:20.404Z,4.10
2018-09-20T14:50:49.003Z,4.27
2018-09-20T14:53:17.138Z,3.97
2018-09-20T14:55:45.451Z,3.87
2018-09-20T14:58:13.695Z,4.17
2018-09-20T15:00:41.886Z,3.97
2018-09-20T15:03:10.011Z,3.77
2018-09-20T15:05:38.153Z,4.60
2018-09-20T15:08:06.372Z,4.13
2018-09-20T15:10:34.646Z,3.97
2018-09-20T15:13:02.745Z,3.37
2018-09-20T15:15:30.928Z,3.90
2018-09-20T15:17:59.045Z,3.57
2018-09-20T15:20:27.218Z,3.70
2018-09-20T15:22:55.458Z,4.27
2018-09-20T15:25:24.082Z,4.30
2018-09-20T15:27:52.525Z,4.10
2018-09-20T15:30:20.718Z,4.10
2018-09-20T15:33:23.131Z,4.33
2018-09-20T15:35:51.338Z,4.23
2018-09-20T15:38:19.520Z,3.50
2018-09-20T15:40:47.812Z,3.97
2018-09-20T15:43:15.996Z,4.10
2018-09-20T15:45:44.240Z,3.50
2018-09-20T15:48:12.445Z,3.57
2018-09-20T15:50:40.664Z,3.90
2018-09-20T15:53:08.875Z,3.90
2018-09-20T15:55:37.117Z,3.73
2018-09-20T15:58:05.554Z,3.93
2018-09-20T16:00:33.663Z,4.00
2018-09-20T16:03:01.822Z,3.27
2018-09-20T16:05:29.930Z,3.43
2018-09-20T16:07:58.208Z,3.37
2018-09-20T16:10:26.419Z,3.47
2018-09-20T16:12:54.550Z,3.87
2018-09-20T16:15:22.731Z,3.70
2018-09-20T16:17:50.887Z,2.90
2018-09-20T16:20:19.010Z,3.27
2018-09-20T16:22:47.250Z,3.57
2018-09-20T16:25:15.965Z,3.23
2018-09-20T16:27:44.161Z,3.57
2018-09-20T16:30:24.480Z,3.30
2018-09-20T16:33:01.153Z,3.30
2018-09-20T16:35:37.220Z,3.50
2018-09-20T16:38:09.492Z,3.27
2018-09-20T16:40:39.577Z,3.50
2018-09-20T16:43:07.758Z,3.83
2018-09-20T16:45:35.931Z,3.60
2018-09-20T16:48:04.138Z,3.30
2018-09-20T16:50:32.336Z,3.50
2018-09-20T16:53:00.579Z,4.07
2018-09-20T16:55:28.746Z,3.50
2018-09-20T16:57:56.937Z,3.50
2018-09-20T17:00:25.196Z,3.50
2018-09-20T17:02:53.573Z,3.77
2018-09-20T17:05:21.890Z,3.70
2018-09-20T17:07:50.047Z,3.50
2018-09-20T17:10:18.238Z,3.80
2018-09-20T17:12:46.366Z,3.90
2018-09-20T17:15:14.687Z,3.70
2018-09-20T17:17:42.812Z,3.93
2018-09-20T17:20:11.127Z,4.10
2018-09-20T17:22:39.397Z,4.27
2018-09-20T17:25:07.572Z,4.03
2018-09-20T17:27:35.753Z,4.43
2018-09-20T17:30:03.939Z,5.20
2018-09-20T17:32:32.075Z,4.87
2018-09-20T17:35:00.492Z,5.30
2018-09-20T17:37:29.476Z,5.40
2018-09-20T17:39:58.148Z,5.50
2018-09-20T17:42:27.216Z,4.87
2018-09-20T17:44:55.419Z,4.43
2018-09-20T17:47:23.632Z,4.53
2018-09-20T17:49:51.780Z,4.97
2018-09-20T17:52:20.291Z,4.23
2018-09-20T17:54:48.875Z,4.70
2018-09-20T17:57:17.452Z,4.50
2018-09-20T17:59:45.894Z,4.10
2018-09-20T18:02:14.232Z,5.00
2018-09-20T18:04:42.472Z,4.50
2018-09-20T18:07:10.704Z,4.50
2018-09-20T18:09:38.893Z,4.60
2018-09-20T18:12:07.087Z,4.70
2018-09-20T18:14:35.333Z,4.97
2018-09-20T18:17:03.545Z,4.77
2018-09-20T18:19:31.768Z,4.63
2018-09-20T18:21:59.951Z,4.50
2018-09-20T18:24:28.095Z,5.33
2018-09-20T18:26:56.332Z,5.07
2018-09-20T18:29:24.728Z,5.37
2018-09-20T18:31:52.959Z,4.77
2018-09-20T18:34:21.309Z,4.57
2018-09-20T18:36:49.493Z,4.63
2018-09-20T18:39:17.731Z,4.50
2018-09-20T18:41:46.357Z,4.50
2018-09-20T18:44:14.646Z,5.10
2018-09-20T18:46:42.880Z,4.80
2018-09-20T18:49:11.236Z,4.77
2018-09-20T18:51:39.470Z,4.90
2018-09-20T18:54:08.296Z,4.30
2018-09-20T18:56:36.521Z,5.50
2018-09-20T18:59:04.847Z,5.80
2018-09-20T19:01:33.072Z,4.90
2018-09-20T19:04:01.400Z,5.50
2018-09-20T19:06:29.637Z,5.33
2018-09-20T19:08:57.848Z,5.00
2018-09-20T19:11:26.210Z,4.93
2018-09-20T19:13:54.444Z,5.43
2018-09-20T19:16:22.644Z,4.87
2018-09-20T19:18:50.916Z,4.93
2018-09-20T19:21:19.333Z,5.50
2018-09-20T19:23:47.602Z,5.77
2018-09-20T19:26:15.791Z,5.77
2018-09-20T19:28:44.834Z,5.67
2018-09-20T19:31:13.067Z,6.13
2018-09-20T19:33:41.292Z,5.53
2018-09-20T19:36:09.555Z,5.60
2018-09-20T19:38:37.843Z,5.63
2018-09-20T19:41:06.194Z,5.03
2018-09-20T19:43:34.445Z,5.57
2018-09-20T19:46:02.683Z,5.50
2018-09-20T19:48:30.886Z,6.07
2018-09-20T19:50:59.195Z,6.17
2018-09-20T19:53:27.476Z,5.80
2018-09-20T19:55:55.711Z,6.07
2018-09-20T19:58:23.926Z,5.13
2018-09-20T20:00:52.204Z,5.90
2018-09-20T20:03:20.428Z,6.67
2018-09-20T20:05:49.347Z,6.70
2018-09-20T20:08:17.494Z,5.90
2018-09-20T20:10:45.822Z,5.90
2018-09-20T20:13:15.034Z,6.27
2018-09-20T20:15:43.447Z,5.87
2018-09-20T20:18:12.585Z,5.93
2018-09-20T20:20:40.901Z,5.40
2018-09-20T20:23:09.118Z,5.83
2018-09-20T20:25:37.403Z,5.60
2018-09-20T20:28:05.645Z,5.90
2018-09-20T20:30:33.902Z,6.20
2018-09-20T20:33:02.076Z,5.83
2018-09-20T20:35:30.306Z,5.90
2018-09-20T20:37:58.546Z,5.80
2018-09-20T20:40:26.751Z,5.93
2018-09-20T20:42:54.912Z,6.80
2018-09-20T20:45:23.398Z,6.53
2018-09-20T20:47:51.682Z,6.07
2018-09-20T20:50:20.029Z,5.97
2018-09-20T20:52:48.378Z,5.60
2018-09-20T20:55:16.655Z,6.17
2018-09-20T20:57:44.962Z,6.20
2018-09-20T21:00:13.267Z,6.43
2018-09-20T21:02:41.474Z,5.70
2018-09-20T21:05:10.977Z,6.53
2018-09-20T21:07:39.143Z,6.10
2018-09-20T21:10:07.402Z,6.60
2018-09-20T21:12:35.573Z,6.00
2018-09-20T21:15:04.258Z,6.50
2018-09-20T21:17:32.544Z,7.60
2018-09-20T21:20:01.659Z,6.83
2018-09-20T21:22:29.905Z,6.90
2018-09-20T21:24:58.127Z,7.50
2018-09-20T21:27:26.462Z,7.73
2018-09-20T21:29:54.802Z,7.13
2018-09-20T21:32:23.024Z,7.53
2018-09-20T21:34:51.368Z,8.30
2018-09-20T21:37:19.577Z,9.43
2018-09-20T21:39:47.832Z,8.57
2018-09-20T21:42:15.961Z,8.83
2018-09-20T21:44:44.206Z,8.97
2018-09-20T21:47:12.433Z,8.17
2018-09-20T21:49:40.672Z,7.83
2018-09-20T21:52:08.847Z,7.20
2018-09-20T21:54:37.015Z,7.67
2018-09-20T21:57:05.185Z,8.20
2018-09-20T21:59:33.425Z,8.43
2018-09-20T22:02:02.869Z,7.23
2018-09-20T22:04:32.007Z,8.10
2018-09-20T22:07:00.702Z,8.13
2018-09-20T22:09:29.534Z,7.33
2018-09-20T22:11:57.727Z,8.00
2018-09-20T22:14:25.958Z,8.17
2018-09-20T22:16:54.150Z,8.80
2018-09-20T22:19:22.332Z,8.27
2018-09-20T22:21:50.489Z,8.97
2018-09-20T22:24:18.745Z,8.80
2018-09-20T22:26:46.940Z,8.47
2018-09-20T22:29:15.114Z,8.00
2018-09-20T22:31:43.317Z,8.97
2018-09-20T22:34:11.556Z,9.60
2018-09-20T22:36:39.691Z,9.07
2018-09-20T22:39:08.481Z,10.00
2018-09-20T22:41:36.618Z,8.30
2018-09-20T22:44:04.829Z,8.83
2018-09-20T22:46:33.011Z,8.60
2018-09-20T22:49:01.094Z,9.10
2018-09-20T22:51:29.306Z,9.27
2018-09-20T22:53:57.465Z,8.70
2018-09-20T22:56:25.655Z,9.20
2018-09-20T22:58:53.796Z,9.73
2018-09-20T23:01:21.963Z,9.70
2018-09-20T23:03:50.169Z,9.87
2018-09-20T23:06:18.508Z,9.23
2018-09-20T23:08:46.738Z,9.63
2018-09-20T23:11:14.942Z,11.27
2018-09-20T23:13:43.188Z,10.43
2018-09-20T23:16:11.645Z,9.67
2018-09-20T23:18:39.967Z,8.50
2018-09-20T23:21:08.206Z,8.87
2018-09-20T23:23:36.386Z,9.37
2018-09-20T23:26:04.770Z,9.70
2018-09-20T23:28:32.922Z,9.17
2018-09-20T23:31:01.110Z,8.90
2018-09-20T23:33:29.271Z,10.53
2018-09-20T23:35:57.465Z,9.37
2018-09-20T23:38:25.696Z,10.43
2018-09-20T23:40:53.899Z,9.10
2018-09-20T23:43:22.006Z,8.60
2018-09-20T23:45:50.133Z,9.50
2018-09-20T23:48:18.384Z,8.93
2018-09-20T23:50:46.567Z,9.17
2018-09-20T23:53:14.696Z,8.83
2018-09-20T23:55:42.902Z,8.97
2018-09-20T23:58:11.081Z,8.70
